KHNB

Huntingburg Airport

Huntingburg, Indiana, USA
METAR KHNB 151556Z AUTO 05012KT 10SM OVC009 08/07 A2992 RMK AO2 RAE55 SLP131 P0000 T00830072
Observed Flight Rules
Dec-15 @ 15:56 UTC (41 minutes ago) Instrument Flight Rules
Wind Visibility Clouds
50° at 12 knots 10 miles
  • Overcast at 900' AGL
Temperatures Readings Precipitation
Current 8°C / 46°F
Dewpoint 7°C / 45°F
Humidity 93%
Altimeter 29.92" Hg
Pressure 1013.1 hPa
Elevation 161
Current Rain 0.005
METAR KHNB 151556Z AUTO 05012KT 10SM OVC009 08/07 A2992 RMK AO2 RAE55 SLP131 P0000 T00830072
Observed Flight Rules
Dec-15 @ 15:56 UTC
(41 minutes ago)
IFR
Wind Visibility
50° at 12 knots 10 miles
Clouds
  • Overcast at 900' AGL
Temperature Dewpoint
8°C / 46°F 7°C / 45°F
Humidity Altimeter Pressure
93% 29.92" Hg 1013.1 hPa
Current Rain
0.005